Time;durP1;ratioP1;P1;durP2;ratioP2;P2;SDS_P1;SDS_P2;PMS_P1;PMS_P2;Temp;Humidity;BMP_temperature;BMP_pressure;BME280_temperature;BME280_humidity;BME280_pressure;Samples;Min_cycle;Max_cycle;Signal;HPM_P1;HPM_P2
2022/07/23 00:00:52;;;;;;;21.77;13.60;;;17.30;99.90;;;;;;4712713;28;9999706;-74
2022/07/23 00:03:18;;;;;;;19.67;13.20;;;17.30;99.90;;;;;;5074028;28;20020;-74
2022/07/23 00:05:43;;;;;;;21.67;13.20;;;17.30;99.90;;;;;;5077403;28;20055;-74
2022/07/23 00:08:09;;;;;;;18.65;13.35;;;17.30;99.90;;;;;;5068266;28;20035;-74
2022/07/23 00:10:35;;;;;;;16.90;11.95;;;17.30;99.90;;;;;;5065894;28;20028;-74
2022/07/23 00:13:01;;;;;;;20.70;12.55;;;17.30;99.90;;;;;;5076052;28;20021;-74
2022/07/23 00:15:27;;;;;;;17.70;12.43;;;17.30;99.90;;;;;;5084844;28;20024;-75
2022/07/23 00:17:52;;;;;;;18.70;11.93;;;17.30;99.90;;;;;;5062675;28;20029;-75
2022/07/23 00:20:18;;;;;;;19.90;13.15;;;17.40;99.90;;;;;;5054244;28;20485;-75
2022/07/23 00:22:54;;;;;;;19.92;12.23;;;17.40;99.90;;;;;;5054349;28;20020;-75
2022/07/23 00:25:23;;;;;;;23.73;13.45;;;17.30;99.90;;;;;;5063802;28;20174;-75
2022/07/23 00:27:49;;;;;;;23.58;14.52;;;17.30;99.90;;;;;;5076305;28;20560;-76
2022/07/23 00:30:15;;;;;;;27.42;14.07;;;17.30;99.90;;;;;;5061398;28;20016;-75
2022/07/23 00:32:47;;;;;;;18.67;12.55;;;17.30;99.90;;;;;;5076299;28;20389;-76
2022/07/23 00:35:13;;;;;;;22.25;13.27;;;17.30;99.90;;;;;;5069317;28;20435;-76
2022/07/23 00:37:39;;;;;;;19.33;13.45;;;17.20;99.90;;;;;;5066834;28;20045;-76
2022/07/23 00:40:05;;;;;;;18.25;13.50;;;17.20;99.90;;;;;;5057047;28;20501;-76
2022/07/23 00:42:31;;;;;;;17.88;13.00;;;17.20;99.90;;;;;;5067494;28;20024;-76
2022/07/23 00:44:57;;;;;;;20.80;12.52;;;17.10;99.90;;;;;;5074086;28;20051;-76
2022/07/23 00:47:23;;;;;;;19.83;13.13;;;17.10;99.90;;;;;;5075722;28;20531;-76
2022/07/23 00:49:48;;;;;;;22.33;12.93;;;17.10;99.90;;;;;;5058589;28;20275;-76
2022/07/23 00:52:14;;;;;;;21.85;13.38;;;17.10;99.90;;;;;;5069115;28;20388;-76
2022/07/23 00:54:39;;;;;;;24.48;13.23;;;17.10;99.90;;;;;;5075982;28;20028;-75
2022/07/23 00:57:05;;;;;;;22.42;13.93;;;17.10;99.90;;;;;;5064666;28;20032;-75
2022/07/23 00:59:31;;;;;;;20.63;13.60;;;17.10;99.90;;;;;;5055619;28;20170;-75
2022/07/23 01:01:58;;;;;;;18.58;13.25;;;17.10;99.90;;;;;;5073673;28;20278;-75
2022/07/23 01:04:23;;;;;;;23.15;13.10;;;17.00;99.90;;;;;;5075184;28;20041;-76
2022/07/23 01:06:49;;;;;;;20.52;14.07;;;17.10;99.90;;;;;;5058964;28;20036;-76
2022/07/23 01:09:15;;;;;;;24.05;13.80;;;17.00;99.90;;;;;;5060677;28;20094;-75
2022/07/23 01:11:41;;;;;;;22.52;13.55;;;17.10;99.90;;;;;;5065566;28;20108;-75
2022/07/23 01:14:12;;;;;;;20.08;13.20;;;17.00;99.90;;;;;;5051801;28;20417;-76
2022/07/23 01:16:37;;;;;;;21.88;13.00;;;17.00;99.90;;;;;;5057568;28;20081;-76
2022/07/23 01:19:06;;;;;;;25.20;13.93;;;17.00;99.90;;;;;;5053403;28;20431;-76
2022/07/23 01:21:42;;;;;;;20.23;12.60;;;17.00;99.90;;;;;;5073107;28;20031;-76
2022/07/23 01:24:09;;;;;;;17.45;12.63;;;17.00;99.90;;;;;;5065261;28;20026;-76
2022/07/23 01:26:35;;;;;;;15.45;11.95;;;17.00;99.90;;;;;;5055860;28;20115;-76
2022/07/23 01:29:01;;;;;;;15.82;12.38;;;17.00;99.90;;;;;;5071337;28;20034;-76
2022/07/23 01:31:26;;;;;;;19.38;13.60;;;16.90;99.90;;;;;;5062341;28;20111;-76
2022/07/23 01:33:52;;;;;;;18.17;12.98;;;16.80;99.90;;;;;;5067023;28;20380;-76
2022/07/23 01:36:18;;;;;;;16.95;12.05;;;16.90;99.90;;;;;;5070469;28;20107;-76
2022/07/23 01:38:44;;;;;;;15.30;11.82;;;16.90;99.90;;;;;;5068589;28;20692;-76
2022/07/23 01:41:10;;;;;;;16.35;13.10;;;16.90;99.90;;;;;;5061948;28;20025;-76
2022/07/23 01:43:35;;;;;;;16.42;13.15;;;16.90;99.90;;;;;;5071522;28;20060;-76
2022/07/23 01:46:01;;;;;;;15.25;11.30;;;16.80;99.90;;;;;;5066921;28;20580;-76
2022/07/23 01:48:26;;;;;;;12.75;10.63;;;16.80;99.90;;;;;;5056409;28;20110;-76
2022/07/23 01:50:52;;;;;;;16.80;12.68;;;16.90;99.90;;;;;;5064828;28;20480;-76
2022/07/23 01:53:18;;;;;;;18.63;12.93;;;16.80;99.90;;;;;;5069879;28;20023;-76
2022/07/23 01:55:43;;;;;;;15.40;11.98;;;16.80;99.90;;;;;;5053340;28;20036;-76
2022/07/23 01:58:09;;;;;;;18.13;12.90;;;16.80;99.90;;;;;;5060495;28;21975;-76
2022/07/23 02:00:35;;;;;;;14.13;11.38;;;16.80;99.90;;;;;;5054939;28;20166;-75
2022/07/23 02:03:01;;;;;;;15.73;12.07;;;16.90;99.90;;;;;;5060350;28;20143;-75
2022/07/23 02:05:28;;;;;;;14.70;11.10;;;16.80;99.90;;;;;;5075994;28;20163;-75
2022/07/23 02:07:54;;;;;;;13.90;10.68;;;16.90;99.90;;;;;;5066415;28;20077;-75
2022/07/23 02:10:21;;;;;;;13.77;11.32;;;16.90;99.90;;;;;;5060633;28;20637;-75
2022/07/23 02:12:46;;;;;;;14.43;10.93;;;16.90;99.90;;;;;;5059476;28;20071;-75
2022/07/23 02:15:12;;;;;;;16.02;11.90;;;16.90;99.90;;;;;;5059805;28;20409;-75
2022/07/23 02:17:38;;;;;;;14.80;11.88;;;16.90;99.90;;;;;;5079252;28;20016;-75
2022/07/23 02:20:05;;;;;;;14.35;11.73;;;16.90;99.90;;;;;;5066222;28;20023;-75
2022/07/23 02:22:31;;;;;;;16.45;12.50;;;16.90;99.90;;;;;;5067503;28;20029;-75
2022/07/23 02:24:56;;;;;;;19.98;12.55;;;17.00;99.90;;;;;;5076087;28;20462;-75
2022/07/23 02:27:23;;;;;;;16.60;12.23;;;17.00;99.90;;;;;;5079375;28;20037;-75
2022/07/23 02:29:49;;;;;;;14.15;11.60;;;17.00;99.90;;;;;;5063658;28;20062;-75
2022/07/23 02:32:14;;;;;;;13.00;10.60;;;17.00;99.90;;;;;;5058809;28;20389;-75
2022/07/23 02:34:40;;;;;;;11.40;9.45;;;17.00;99.90;;;;;;5058425;28;20085;-75
2022/07/23 02:37:06;;;;;;;12.95;9.32;;;16.90;99.90;;;;;;5084545;28;20656;-75
2022/07/23 02:39:31;;;;;;;15.95;12.13;;;16.90;99.90;;;;;;5062948;28;20028;-75
2022/07/23 02:41:57;;;;;;;15.88;11.43;;;16.80;99.90;;;;;;5073522;28;20036;-75
2022/07/23 02:44:23;;;;;;;17.42;11.85;;;16.80;99.90;;;;;;5062800;28;20029;-75
2022/07/23 02:46:48;;;;;;;18.02;12.57;;;16.80;99.90;;;;;;5054438;28;20029;-75
2022/07/23 02:49:14;;;;;;;18.05;13.23;;;16.80;99.90;;;;;;5057250;28;20029;-75
2022/07/23 02:51:39;;;;;;;17.52;12.55;;;16.80;99.90;;;;;;5055950;28;20025;-75
2022/07/23 02:54:05;;;;;;;17.27;12.45;;;16.90;99.90;;;;;;5069622;28;20515;-75
2022/07/23 02:56:31;;;;;;;25.55;13.73;;;16.90;99.90;;;;;;5060659;28;20436;-75
2022/07/23 02:58:56;;;;;;;22.25;13.95;;;16.90;99.90;;;;;;5054913;28;20142;-75
2022/07/23 03:01:22;;;;;;;22.00;14.80;;;16.90;99.90;;;;;;5066935;28;20645;-76
2022/07/23 03:03:47;;;;;;;22.15;14.73;;;16.90;99.90;;;;;;5082475;28;20035;-75
2022/07/23 03:06:13;;;;;;;20.58;15.10;;;16.90;99.90;;;;;;5061594;28;20033;-75
2022/07/23 03:08:39;;;;;;;23.80;15.27;;;16.90;99.90;;;;;;5059379;28;20028;-75
2022/07/23 03:11:10;;;;;;;20.80;14.50;;;16.90;99.90;;;;;;5068331;28;20035;-75
2022/07/23 03:13:36;;;;;;;21.42;15.60;;;16.90;99.90;;;;;;5060232;28;20139;-75
2022/07/23 03:16:02;;;;;;;24.73;15.85;;;16.90;99.90;;;;;;5059303;28;20491;-76
2022/07/23 03:18:27;;;;;;;19.13;15.38;;;16.90;99.90;;;;;;5072450;28;20024;-75
2022/07/23 03:20:53;;;;;;;26.52;15.60;;;16.80;99.90;;;;;;5069179;28;20090;-75
2022/07/23 03:23:19;;;;;;;19.15;14.70;;;16.80;99.90;;;;;;5072246;28;20033;-76
2022/07/23 03:25:46;;;;;;;21.35;15.05;;;16.80;99.90;;;;;;5068175;28;20800;-75
2022/07/23 03:28:12;;;;;;;21.15;15.30;;;16.80;99.90;;;;;;5078344;28;20550;-76
2022/07/23 03:30:38;;;;;;;19.60;14.95;;;16.80;99.90;;;;;;5054879;28;20028;-76
2022/07/23 03:33:03;;;;;;;22.33;14.05;;;16.80;99.90;;;;;;5064644;28;20027;-76
2022/07/23 03:35:29;;;;;;;17.40;13.25;;;16.80;99.90;;;;;;5072340;28;20510;-76
2022/07/23 03:37:54;;;;;;;19.50;14.60;;;16.80;99.90;;;;;;5074725;28;20040;-76
2022/07/23 03:40:20;;;;;;;19.25;14.05;;;16.80;99.90;;;;;;5066129;28;20029;-76
2022/07/23 03:42:46;;;;;;;20.90;15.43;;;16.80;99.90;;;;;;5073373;28;20425;-76
2022/07/23 03:45:12;;;;;;;22.00;15.02;;;16.80;99.90;;;;;;5076996;28;20055;-76
2022/07/23 03:47:38;;;;;;;20.45;14.90;;;16.80;99.90;;;;;;5072379;28;20048;-75
2022/07/23 03:50:04;;;;;;;20.50;14.82;;;16.80;99.90;;;;;;5060782;28;20649;-75
2022/07/23 03:52:30;;;;;;;21.52;14.30;;;16.80;99.90;;;;;;5072393;28;20089;-75
2022/07/23 03:54:55;;;;;;;24.40;15.52;;;16.80;99.90;;;;;;5059769;28;20024;-75
2022/07/23 03:57:21;;;;;;;22.27;14.27;;;16.80;99.90;;;;;;5076971;28;20388;-75
2022/07/23 03:59:47;;;;;;;20.73;14.50;;;16.80;99.90;;;;;;5069966;28;20070;-76
2022/07/23 04:02:12;;;;;;;23.10;14.80;;;16.80;99.90;;;;;;5056815;28;20501;-75
2022/07/23 04:04:38;;;;;;;21.10;15.27;;;16.70;99.90;;;;;;5063063;28;20496;-75
2022/07/23 04:07:03;;;;;;;23.13;15.05;;;16.70;99.90;;;;;;5076597;28;20095;-76
2022/07/23 04:09:29;;;;;;;22.75;15.50;;;16.70;99.90;;;;;;5070346;28;20043;-76
2022/07/23 04:11:54;;;;;;;25.75;16.25;;;16.70;99.90;;;;;;5066380;28;20029;-75
2022/07/23 04:14:20;;;;;;;27.02;15.70;;;16.70;99.90;;;;;;5066467;28;20128;-76
2022/07/23 04:16:46;;;;;;;23.85;14.95;;;16.70;99.90;;;;;;5053313;28;20028;-75
2022/07/23 04:19:11;;;;;;;21.60;15.18;;;16.70;99.90;;;;;;5058603;28;20035;-75
2022/07/23 04:21:37;;;;;;;21.60;14.93;;;16.70;99.90;;;;;;5056501;28;20078;-75
2022/07/23 04:24:03;;;;;;;24.98;16.42;;;16.70;99.90;;;;;;5056681;28;20090;-75
2022/07/23 04:26:28;;;;;;;23.85;15.63;;;16.70;99.90;;;;;;5072953;28;20505;-75
2022/07/23 04:28:54;;;;;;;23.83;15.95;;;16.70;99.90;;;;;;5057579;28;20264;-75
2022/07/23 04:31:20;;;;;;;28.52;17.00;;;16.70;99.90;;;;;;5056848;28;20024;-75
2022/07/23 04:33:45;;;;;;;24.42;16.95;;;16.70;99.90;;;;;;5065076;28;20035;-75
2022/07/23 04:36:11;;;;;;;24.23;16.25;;;16.60;99.90;;;;;;5066928;28;20232;-75
2022/07/23 04:38:36;;;;;;;26.48;16.35;;;16.70;99.90;;;;;;5066470;28;20128;-75
2022/07/23 04:41:02;;;;;;;23.80;17.10;;;16.70;99.90;;;;;;5064134;28;20086;-75
2022/07/23 04:43:27;;;;;;;22.88;16.73;;;16.70;99.90;;;;;;5069217;28;20032;-75
2022/07/23 04:45:53;;;;;;;22.00;15.75;;;16.70;99.90;;;;;;5063811;28;20028;-76
2022/07/23 04:48:19;;;;;;;25.38;16.77;;;16.70;99.90;;;;;;5060627;28;20066;-76
2022/07/23 04:50:44;;;;;;;25.00;16.95;;;16.80;99.90;;;;;;5054305;28;20448;-75
2022/07/23 04:53:10;;;;;;;24.45;16.52;;;16.70;99.90;;;;;;5052999;28;20025;-75
2022/07/23 04:55:35;;;;;;;20.63;16.20;;;16.80;99.90;;;;;;5069377;28;20027;-75
2022/07/23 04:58:01;;;;;;;23.38;15.38;;;16.80;99.90;;;;;;5058872;28;20090;-76
2022/07/23 05:00:26;;;;;;;25.83;16.70;;;16.80;99.90;;;;;;5050612;28;20044;-76
2022/07/23 05:02:52;;;;;;;24.83;16.75;;;16.80;99.90;;;;;;5054283;28;20032;-76
2022/07/23 05:05:17;;;;;;;24.38;16.38;;;16.80;99.90;;;;;;5054346;28;20035;-76
2022/07/23 05:07:43;;;;;;;25.15;15.70;;;16.90;99.90;;;;;;5051513;28;20073;-76
2022/07/23 05:10:09;;;;;;;25.30;15.93;;;16.90;99.90;;;;;;5054207;28;20370;-76
2022/07/23 05:12:34;;;;;;;23.02;16.20;;;17.00;99.90;;;;;;5055866;28;20041;-77
2022/07/23 05:15:00;;;;;;;29.27;15.75;;;17.10;99.90;;;;;;5048462;28;20029;-76
2022/07/23 05:17:26;;;;;;;25.00;14.98;;;17.20;99.90;;;;;;5051102;28;20444;-76
2022/07/23 05:19:51;;;;;;;26.55;15.73;;;17.30;99.90;;;;;;5053993;28;20508;-76
2022/07/23 05:22:17;;;;;;;21.33;14.50;;;17.40;99.90;;;;;;5052953;28;20056;-77
2022/07/23 05:24:43;;;;;;;19.77;14.65;;;17.40;99.90;;;;;;5054638;28;20548;-77
2022/07/23 05:27:08;;;;;;;19.85;14.43;;;17.50;99.90;;;;;;5049380;28;20025;-76
2022/07/23 05:29:34;;;;;;;20.35;14.43;;;17.40;99.90;;;;;;5053121;28;20025;-76
2022/07/23 05:32:00;;;;;;;21.38;14.25;;;17.40;99.90;;;;;;5052073;28;20024;-76
2022/07/23 05:34:25;;;;;;;22.90;14.82;;;17.40;99.90;;;;;;5061547;28;20028;-76
2022/07/23 05:36:51;;;;;;;21.20;14.45;;;17.50;99.90;;;;;;5062461;28;20041;-76
2022/07/23 05:39:16;;;;;;;20.45;13.43;;;17.50;99.90;;;;;;5048769;28;20032;-76
2022/07/23 05:41:42;;;;;;;21.08;13.50;;;17.60;99.90;;;;;;5050106;28;20442;-76
2022/07/23 05:44:08;;;;;;;21.50;13.73;;;17.70;99.90;;;;;;5048997;28;20052;-75
2022/07/23 05:46:33;;;;;;;19.35;13.55;;;17.70;99.90;;;;;;5046645;28;20385;-76
2022/07/23 05:48:59;;;;;;;20.38;12.95;;;17.80;99.90;;;;;;5047190;28;20432;-75
2022/07/23 05:51:25;;;;;;;23.08;12.98;;;17.80;99.90;;;;;;5056180;28;20059;-76
2022/07/23 05:53:51;;;;;;;17.77;12.52;;;17.80;99.90;;;;;;5060441;28;20016;-76
2022/07/23 05:56:18;;;;;;;18.30;12.45;;;17.80;99.90;;;;;;5068981;28;20040;-76
2022/07/23 05:58:44;;;;;;;23.92;12.60;;;17.90;99.90;;;;;;5055280;28;20078;-76
2022/07/23 06:01:11;;;;;;;18.20;12.90;;;18.00;99.90;;;;;;5056909;28;20024;-76
2022/07/23 06:03:37;;;;;;;22.42;13.45;;;18.10;99.90;;;;;;5052307;28;20052;-75
2022/07/23 06:06:04;;;;;;;19.90;12.43;;;18.10;99.90;;;;;;5057104;28;20527;-75
2022/07/23 06:08:29;;;;;;;21.13;13.00;;;18.10;99.90;;;;;;5057026;28;20408;-75
2022/07/23 06:10:55;;;;;;;19.40;12.60;;;18.20;99.90;;;;;;5062633;28;20029;-75
2022/07/23 06:13:21;;;;;;;19.25;12.40;;;18.20;99.90;;;;;;5057977;28;20032;-75
2022/07/23 06:15:46;;;;;;;15.32;11.90;;;18.30;99.90;;;;;;5051662;28;20098;-74
2022/07/23 06:18:12;;;;;;;17.92;11.48;;;18.30;99.90;;;;;;5051278;28;20025;-75
2022/07/23 06:20:37;;;;;;;16.70;11.68;;;18.40;99.90;;;;;;5060592;28;20032;-73
2022/07/23 06:23:04;;;;;;;16.25;11.05;;;18.40;99.90;;;;;;5049228;28;20111;-74
2022/07/23 06:25:29;;;;;;;16.42;11.63;;;18.40;99.90;;;;;;5053192;28;20100;-73
2022/07/23 06:27:55;;;;;;;17.40;10.35;;;18.50;99.90;;;;;;5049500;28;20048;-73
2022/07/23 06:30:21;;;;;;;18.30;11.40;;;18.50;99.90;;;;;;5064810;28;20388;-74
2022/07/23 06:32:47;;;;;;;15.75;10.32;;;18.50;99.90;;;;;;5071699;28;20066;-74
2022/07/23 06:35:13;;;;;;;16.40;10.38;;;18.50;99.90;;;;;;5050152;28;20051;-73
2022/07/23 06:37:39;;;;;;;23.67;10.85;;;18.50;99.90;;;;;;5051874;28;20041;-73
2022/07/23 06:40:05;;;;;;;17.08;10.85;;;18.60;99.90;;;;;;5046563;28;20053;-74
2022/07/23 06:42:31;;;;;;;15.85;10.40;;;18.60;99.90;;;;;;5054049;28;20029;-73
2022/07/23 06:44:57;;;;;;;12.77;9.35;;;18.80;99.90;;;;;;5055331;28;20477;-74
2022/07/23 06:47:22;;;;;;;15.15;9.68;;;19.00;99.90;;;;;;5049966;28;20124;-73
2022/07/23 06:49:48;;;;;;;12.93;9.70;;;19.20;99.90;;;;;;5048212;28;20056;-73
2022/07/23 06:52:14;;;;;;;14.30;9.10;;;19.50;99.90;;;;;;5051817;28;20327;-72
2022/07/23 06:54:39;;;;;;;12.73;9.15;;;19.70;99.90;;;;;;5055888;28;20577;-73
2022/07/23 06:57:05;;;;;;;11.05;8.32;;;20.00;99.90;;;;;;5054173;28;20028;-73
2022/07/23 06:59:30;;;;;;;12.20;8.15;;;20.20;99.90;;;;;;5054359;28;20123;-73
2022/07/23 07:01:57;;;;;;;14.85;8.90;;;20.40;99.90;;;;;;5049433;28;20052;-72
2022/07/23 07:04:23;;;;;;;16.42;8.82;;;20.60;99.90;;;;;;5058643;28;20059;-73
2022/07/23 07:06:49;;;;;;;11.32;8.05;;;20.80;99.90;;;;;;5055751;28;20112;-73
2022/07/23 07:09:14;;;;;;;11.88;8.13;;;20.90;99.90;;;;;;5049121;28;20032;-73
2022/07/23 07:11:40;;;;;;;20.02;8.60;;;21.00;99.90;;;;;;5065105;28;20024;-73
2022/07/23 07:14:06;;;;;;;11.52;8.30;;;21.10;99.90;;;;;;5065345;28;20020;-72
2022/07/23 07:16:32;;;;;;;10.65;6.78;;;21.20;99.90;;;;;;5060942;28;20109;-73
2022/07/23 07:18:57;;;;;;;9.70;7.00;;;21.40;99.90;;;;;;5049186;28;20056;-73
2022/07/23 07:21:23;;;;;;;8.57;6.75;;;21.50;99.90;;;;;;5057735;28;20492;-72
2022/07/23 07:24:17;;;;;;;11.82;6.90;;;21.60;99.90;;;;;;5059441;28;20103;-73
2022/07/23 07:26:42;;;;;;;;;;;21.60;99.90;;;;;;5054066;28;20322;-73
2022/07/23 07:29:08;;;;;;;13.02;7.05;;;21.50;99.90;;;;;;5046679;28;20290;-73
2022/07/23 07:31:33;;;;;;;9.32;6.13;;;21.40;99.90;;;;;;5057444;28;20513;-73
2022/07/23 07:33:59;;;;;;;9.80;6.57;;;21.50;99.90;;;;;;5055321;28;20020;-74
2022/07/23 07:36:25;;;;;;;8.00;6.68;;;21.70;99.90;;;;;;5049388;28;20029;-73
2022/07/23 07:38:51;;;;;;;8.27;6.43;;;;;;;;;;5056301;28;20036;-74
2022/07/23 07:41:17;;;;;;;10.68;6.53;;;22.00;99.90;;;;;;5046305;28;20607;-74
2022/07/23 07:43:42;;;;;;;9.50;7.15;;;22.00;99.90;;;;;;5059629;28;20119;-73
2022/07/23 07:46:09;;;;;;;8.35;6.13;;;21.90;99.90;;;;;;5054295;28;20029;-73
2022/07/23 07:48:36;;;;;;;10.18;6.97;;;21.90;99.90;;;;;;5055722;28;21656;-73
2022/07/23 07:51:03;;;;;;;7.78;6.38;;;21.90;99.90;;;;;;5068831;28;20491;-73
2022/07/23 07:53:29;;;;;;;11.50;7.05;;;21.80;99.90;;;;;;5050634;28;20029;-73
2022/07/23 07:55:55;;;;;;;9.13;6.40;;;21.80;99.90;;;;;;5055880;28;20035;-73
2022/07/23 07:58:20;;;;;;;9.50;6.90;;;21.70;99.90;;;;;;5068129;28;20497;-73
2022/07/23 08:00:46;;;;;;;13.13;7.25;;;21.70;99.90;;;;;;5047795;28;20027;-73
2022/07/23 08:03:12;;;;;;;11.00;6.93;;;21.70;99.90;;;;;;5068320;28;20024;-73
2022/07/23 08:05:38;;;;;;;9.93;6.50;;;21.70;99.90;;;;;;5056656;28;20033;-73
2022/07/23 08:08:04;;;;;;;8.27;7.03;;;21.70;99.90;;;;;;5053291;28;20516;-73
2022/07/23 08:10:31;;;;;;;10.77;6.45;;;21.70;99.90;;;;;;5053585;28;20033;-73
2022/07/23 08:12:58;;;;;;;11.73;6.82;;;21.80;99.90;;;;;;5056404;28;20063;-73
2022/07/23 08:15:27;;;;;;;12.00;7.00;;;21.80;99.90;;;;;;5056655;28;20553;-73
2022/07/23 08:17:53;;;;;;;8.95;6.70;;;21.80;99.90;;;;;;5057227;28;20119;-73
2022/07/23 08:20:20;;;;;;;8.27;5.78;;;22.00;99.90;;;;;;5050869;28;20029;-73
2022/07/23 08:22:46;;;;;;;8.43;6.72;;;22.00;99.90;;;;;;5060019;28;20566;-73
2022/07/23 08:25:11;;;;;;;11.20;5.93;;;22.00;99.90;;;;;;5057549;28;20059;-73
2022/07/23 08:27:37;;;;;;;10.07;7.10;;;22.00;99.90;;;;;;5068732;28;20644;-73
2022/07/23 08:30:03;;;;;;;8.38;6.57;;;22.20;99.90;;;;;;5057239;28;20627;-73
2022/07/23 08:32:29;;;;;;;9.18;7.00;;;22.40;99.90;;;;;;5054362;28;20032;-73
2022/07/23 08:34:54;;;;;;;9.30;6.68;;;22.60;99.90;;;;;;5053571;28;20032;-73
2022/07/23 08:37:20;;;;;;;7.82;5.95;;;22.80;99.90;;;;;;5054900;28;20591;-73
2022/07/23 08:39:46;;;;;;;8.18;6.05;;;23.00;99.90;;;;;;5053917;28;20079;-73
2022/07/23 08:42:15;;;;;;;9.82;5.60;;;23.20;99.90;;;;;;5055611;28;20393;-73
2022/07/23 08:44:45;;;;;;;7.75;5.60;;;23.50;99.90;;;;;;5055535;28;20026;-73
2022/07/23 08:47:15;;;;;;;6.30;4.75;;;23.60;99.90;;;;;;5055313;28;20538;-73
2022/07/23 08:49:41;;;;;;;6.43;4.93;;;23.60;99.90;;;;;;5052226;28;20091;-74
2022/07/23 08:52:09;;;;;;;7.30;5.00;;;23.60;99.90;;;;;;5054291;28;20076;-73
2022/07/23 08:54:35;;;;;;;7.32;4.80;;;23.40;99.90;;;;;;5046637;28;20912;-74
2022/07/23 08:57:00;;;;;;;7.13;4.63;;;23.20;99.90;;;;;;5057684;28;20031;-73
2022/07/23 08:59:26;;;;;;;6.68;4.85;;;23.10;99.90;;;;;;5053402;28;20404;-73
2022/07/23 09:01:52;;;;;;;6.65;4.63;;;23.00;99.90;;;;;;5061353;28;20028;-74
2022/07/23 09:04:18;;;;;;;6.85;4.90;;;23.00;99.90;;;;;;5048549;28;20037;-73
2022/07/23 09:06:44;;;;;;;6.82;4.80;;;23.20;99.90;;;;;;5048638;28;20188;-74
2022/07/23 09:09:17;;;;;;;5.80;4.65;;;23.40;99.90;;;;;;5048100;28;20021;-74
2022/07/23 09:11:46;;;;;;;6.88;5.25;;;23.40;99.90;;;;;;5062218;28;20020;-74
2022/07/23 09:14:12;;;;;;;7.32;4.28;;;23.50;99.90;;;;;;5057728;28;20121;-74
2022/07/23 09:16:38;;;;;;;4.72;3.33;;;23.40;99.90;;;;;;5060280;28;20516;-73
2022/07/23 09:19:06;;;;;;;5.45;3.45;;;23.20;99.90;;;;;;5055044;28;20119;-73
2022/07/23 09:21:36;;;;;;;5.60;3.70;;;23.10;99.90;;;;;;5050987;28;20028;-73
2022/07/23 09:24:12;;;;;;;4.60;3.67;;;23.20;99.90;;;;;;5061122;28;20033;-73
2022/07/23 09:26:38;;;;;;;4.88;3.28;;;23.40;99.90;;;;;;5051169;28;20071;-73
2022/07/23 09:29:21;;;;;;;5.57;3.22;;;23.60;99.90;;;;;;5049111;28;20104;-73
2022/07/23 09:31:50;;;;;;;5.82;3.20;;;23.60;99.90;;;;;;5053566;28;20029;-73
2022/07/23 09:34:19;;;;;;;4.00;2.90;;;23.70;99.90;;;;;;5051427;28;20247;-73
2022/07/23 09:36:46;;;;;;;6.18;2.97;;;23.50;99.90;;;;;;5067016;28;20468;-73
2022/07/23 09:39:13;;;;;;;5.13;3.03;;;23.50;99.90;;;;;;5055956;28;20025;-73
2022/07/23 09:41:46;;;;;;;5.47;3.13;;;23.60;99.90;;;;;;5052489;28;20497;-73
2022/07/23 09:44:19;;;;;;;6.83;2.70;;;23.70;99.90;;;;;;5053077;28;20081;-73
2022/07/23 09:46:47;;;;;;;5.55;3.50;;;23.60;99.90;;;;;;5051646;28;20295;-73
2022/07/23 09:49:22;;;;;;;3.75;2.92;;;23.70;99.90;;;;;;5052154;28;20017;-73
2022/07/23 09:51:52;;;;;;;4.10;2.92;;;23.60;99.90;;;;;;5064741;28;20166;-73
2022/07/23 09:54:31;;;;;;;3.95;3.03;;;23.60;99.90;;;;;;5059584;28;20020;-74
2022/07/23 09:56:59;;;;;;;4.35;3.00;;;23.70;99.90;;;;;;5048829;28;20044;-73
2022/07/23 09:59:31;;;;;;;6.38;3.28;;;23.70;99.90;;;;;;5052055;28;20016;-73
2022/07/23 10:01:59;;;;;;;4.63;3.20;;;23.60;99.90;;;;;;5055170;28;20248;-73
2022/07/23 10:04:27;;;;;;;3.50;3.17;;;23.50;99.90;;;;;;5054472;28;20037;-73
2022/07/23 10:06:55;;;;;;;3.90;2.97;;;23.50;99.90;;;;;;5068068;28;20031;-73
2022/07/23 10:09:31;;;;;;;5.53;3.42;;;23.60;99.90;;;;;;5044545;28;20028;-74
2022/07/23 10:14:40;;;;;;;4.70;2.97;;;23.90;99.90;;;;;;5064709;28;20033;-74
2022/07/23 10:17:06;;;;;;;4.88;2.85;;;24.30;99.90;;;;;;5057276;28;20068;-74
2022/07/23 10:19:32;;;;;;;3.95;3.13;;;24.40;99.90;;;;;;5055640;28;20078;-73
2022/07/23 10:22:06;;;;;;;4.28;3.33;;;24.40;99.90;;;;;;5048939;28;20032;-74
2022/07/23 10:24:52;;;;;;;4.32;3.05;;;24.50;99.90;;;;;;5057833;28;20526;-73
2022/07/23 10:27:42;;;;;;;3.67;3.08;;;24.50;99.90;;;;;;5058434;28;20709;-74
2022/07/23 10:30:18;;;;;;;5.20;2.95;;;24.30;99.90;;;;;;5062053;28;20087;-74
2022/07/23 10:33:26;;;;;;;3.92;3.17;;;24.30;99.90;;;;;;5055653;28;20128;-73
2022/07/23 10:36:13;;;;;;;4.55;2.90;;;24.50;99.90;;;;;;5044553;28;20048;-73
2022/07/23 10:38:56;;;;;;;3.88;2.60;;;24.60;99.90;;;;;;5053815;28;20049;-73
2022/07/23 10:41:36;;;;;;;3.92;2.83;;;24.70;99.90;;;;;;5065678;28;20493;-74
2022/07/23 10:44:16;;;;;;;4.38;2.95;;;24.90;99.10;;;;;;5056370;28;20044;-74
2022/07/23 10:49:33;;;;;;;3.83;2.47;;;25.00;97.60;;;;;;5060497;28;20032;-74
2022/07/23 10:52:26;;;;;;;5.63;2.40;;;25.10;98.50;;;;;;5053953;28;20066;-74
2022/07/23 10:55:00;;;;;;;5.25;2.22;;;25.30;97.50;;;;;;5054089;28;20036;-74
2022/07/23 10:57:27;;;;;;;2.58;1.92;;;25.50;97.10;;;;;;5049854;28;20411;-74
2022/07/23 11:00:06;;;;;;;3.75;2.10;;;25.50;97.10;;;;;;5054362;28;20119;-73
2022/07/23 11:02:33;;;;;;;2.72;1.77;;;25.50;96.30;;;;;;5056393;28;20366;-75
2022/07/23 11:05:04;;;;;;;3.83;2.20;;;25.40;93.60;;;;;;5059813;28;20017;-74
2022/07/23 11:07:30;;;;;;;4.13;2.38;;;25.30;92.70;;;;;;5058135;28;20559;-74
2022/07/23 11:09:55;;;;;;;4.25;2.50;;;25.30;93.30;;;;;;5065401;28;20051;-74
2022/07/23 11:12:21;;;;;;;3.88;2.42;;;25.30;93.30;;;;;;5063676;28;20046;-73
2022/07/23 11:15:14;;;;;;;3.15;2.10;;;25.30;92.30;;;;;;5060618;28;20076;-73
2022/07/23 11:17:42;;;;;;;3.47;1.88;;;25.20;93.40;;;;;;5053330;28;20501;-75
2022/07/23 11:20:17;;;;;;;4.45;2.60;;;25.10;93.10;;;;;;5060612;28;20066;-74
2022/07/23 11:22:42;;;;;;;2.25;1.85;;;25.30;91.90;;;;;;5051425;28;20183;-74
2022/07/23 11:25:09;;;;;;;2.83;1.78;;;25.30;91.40;;;;;;4703211;28;10000977;-75
2022/07/23 11:27:44;;;;;;;4.20;1.90;;;25.50;90.50;;;;;;5043621;28;20491;-75
2022/07/23 11:30:40;;;;;;;2.72;2.00;;;25.50;84.90;;;;;;5045085;28;20025;-72
2022/07/23 11:33:08;;;;;;;3.53;2.50;;;25.60;87.00;;;;;;5036881;28;20036;-72
2022/07/23 11:35:35;;;;;;;5.20;2.25;;;25.70;87.50;;;;;;5049595;28;20082;-72
2022/07/23 11:38:13;;;;;;;4.22;2.35;;;25.80;84.70;;;;;;5041686;28;20577;-72
2022/07/23 11:40:39;;;;;;;4.13;2.40;;;25.80;85.90;;;;;;5057625;28;20124;-72
2022/07/23 11:43:09;;;;;;;4.28;2.90;;;25.70;83.50;;;;;;5055126;28;20067;-72
2022/07/23 11:45:38;;;;;;;3.75;2.50;;;25.70;82.60;;;;;;5056190;28;20389;-72
2022/07/23 11:48:06;;;;;;;3.40;2.30;;;25.80;83.00;;;;;;5050519;28;20020;-72
2022/07/23 11:50:32;;;;;;;4.32;2.58;;;25.90;81.00;;;;;;5048562;28;20122;-71
2022/07/23 11:52:58;;;;;;;5.82;2.40;;;25.90;83.50;;;;;;5059164;28;20497;-72
2022/07/23 11:55:24;;;;;;;5.20;2.70;;;25.90;82.90;;;;;;5048054;28;20531;-72
2022/07/23 11:57:52;;;;;;;4.90;2.30;;;26.00;81.30;;;;;;5059676;28;20017;-72
2022/07/23 12:00:25;;;;;;;3.35;2.70;;;26.10;82.90;;;;;;5045072;28;20036;-71
2022/07/23 12:02:55;;;;;;;3.97;2.90;;;26.20;81.80;;;;;;5050120;28;20016;-71
2022/07/23 12:05:26;;;;;;;4.72;3.15;;;26.10;78.30;;;;;;5047035;28;20056;-71
2022/07/23 12:07:53;;;;;;;3.65;2.75;;;26.10;78.70;;;;;;5047331;28;20587;-72
2022/07/23 12:10:29;;;;;;;3.47;2.63;;;26.10;79.50;;;;;;5049343;28;20029;-72
2022/07/23 12:13:07;;;;;;;5.55;2.90;;;26.10;80.00;;;;;;5052226;28;20081;-72
2022/07/23 12:15:38;;;;;;;3.80;2.72;;;26.30;79.60;;;;;;5047369;28;20108;-72
2022/07/23 12:18:04;;;;;;;3.42;2.70;;;26.50;78.30;;;;;;5049704;28;20625;-72
2022/07/23 12:20:41;;;;;;;4.97;2.85;;;26.50;78.60;;;;;;5045927;28;20021;-72
2022/07/23 12:23:09;;;;;;;4.95;3.33;;;26.60;77.80;;;;;;5046203;28;20029;-73
2022/07/23 12:25:41;;;;;;;4.50;2.83;;;26.60;76.20;;;;;;4353609;28;10000859;-72
2022/07/23 12:28:16;;;;;;;4.95;3.25;;;26.70;77.60;;;;;;5057854;28;20092;-81
2022/07/23 12:30:44;;;;;;;2.53;2.33;;;26.70;76.80;;;;;;5050120;28;20504;-81
2022/07/23 12:33:12;;;;;;;3.60;2.40;;;26.70;77.60;;;;;;5058005;28;20047;-81
2022/07/23 12:35:41;;;;;;;5.03;2.80;;;26.80;78.80;;;;;;5052917;28;20033;-81
2022/07/23 12:38:10;;;;;;;5.53;3.20;;;27.10;77.30;;;;;;5054125;28;20052;-80
2022/07/23 12:40:41;;;;;;;5.88;2.78;;;27.00;75.20;;;;;;5043495;28;20489;-72
2022/07/23 12:43:10;;;;;;;4.10;2.97;;;27.00;75.60;;;;;;5046427;28;20488;-73